Time;durP1;ratioP1;P1;durP2;ratioP2;P2;SDS_P1;SDS_P2;PMS_P1;PMS_P2;Temp;Humidity;BMP_temperature;BMP_pressure;BME280_temperature;BME280_humidity;BME280_pressure;Samples;Min_cycle;Max_cycle;Signal;HPM_P1;HPM_P2
2021/05/12 04:59:35;;;;;;;1.65;1.55;;;;;;;16.78;47.18;100628.83;1849677;76;22780;-67
2021/05/12 05:02:04;;;;;;;2.27;1.40;;;;;;;16.88;46.53;100633.77;1839500;77;21079;-68
2021/05/12 05:04:31;;;;;;;1.67;1.50;;;;;;;16.93;46.39;100642.16;1818822;77;21290;-74
2021/05/12 05:06:58;;;;;;;2.10;1.90;;;;;;;17.05;46.38;100628.59;1801318;77;20968;-68
2021/05/12 05:09:25;;;;;;;1.65;1.55;;;;;;;17.22;46.12;100631.64;1810492;77;20995;-71
2021/05/12 05:11:53;;;;;;;2.77;1.77;;;;;;;17.33;45.47;100634.80;1825441;77;21712;-68
2021/05/12 05:14:19;;;;;;;3.52;1.47;;;;;;;17.38;45.34;100628.72;1803490;77;20912;-71
2021/05/12 05:16:47;;;;;;;1.85;1.30;;;;;;;17.42;44.90;100640.70;1812657;77;20976;-67
2021/05/12 05:19:14;;;;;;;1.52;1.42;;;;;;;17.38;44.76;100633.14;1786888;77;21625;-69
2021/05/12 05:21:43;;;;;;;1.87;1.77;;;;;;;17.34;45.02;100638.63;1799953;77;20960;-69
2021/05/12 05:24:10;;;;;;;2.62;1.22;;;;;;;17.43;45.20;100643.70;1808116;78;21003;-70
2021/05/12 05:26:37;;;;;;;1.50;1.40;;;;;;;17.68;44.29;100641.38;1807437;77;20923;-75
2021/05/12 05:29:04;;;;;;;3.87;1.40;;;;;;;17.87;44.37;100631.13;1801352;77;21153;-68
2021/05/12 05:31:31;;;;;;;2.80;1.30;;;;;;;18.03;43.60;100631.24;1823406;77;21445;-69
2021/05/12 05:34:16;;;;;;;1.55;1.37;;;;;;;18.17;43.56;100631.02;1820505;77;21007;-68
2021/05/12 05:37:02;;;;;;;3.37;1.70;;;;;;;18.32;42.77;100629.82;1798754;77;20949;-68
2021/05/12 05:39:47;;;;;;;1.63;1.53;;;;;;;18.33;42.57;100634.13;1786327;79;20996;-68
2021/05/12 05:42:33;;;;;;;2.55;1.30;;;;;;;18.25;42.66;100628.14;1848836;77;21162;-67
2021/05/12 05:45:20;;;;;;;1.63;1.50;;;;;;;18.29;42.91;100622.16;1817000;77;20996;-69
2021/05/12 05:48:07;;;;;;;3.25;1.32;;;;;;;18.31;42.25;100634.25;1798367;77;20909;-70
2021/05/12 05:50:53;;;;;;;2.90;1.40;;;;;;;18.07;42.35;100614.23;1820019;77;21426;-72
2021/05/12 05:53:38;;;;;;;1.47;1.37;;;;;;;17.92;43.15;100629.46;1788454;78;21505;-71
2021/05/12 05:56:25;;;;;;;1.55;1.10;;;;;;;17.90;42.61;100620.84;1789868;78;22263;-70
2021/05/12 05:59:11;;;;;;;2.25;1.17;;;;;;;17.76;42.50;100629.79;1808886;77;20980;-70
2021/05/12 06:01:57;;;;;;;4.17;1.42;;;;;;;17.59;43.20;100626.27;1815736;77;20920;-69
2021/05/12 06:04:26;;;;;;;1.20;1.20;;;;;;;17.58;43.61;100614.06;1806413;78;20960;-70
2021/05/12 06:07:12;;;;;;;2.47;1.40;;;;;;;17.57;43.11;100622.91;1797238;78;20908;-78
2021/05/12 06:09:57;;;;;;;6.00;1.95;;;;;;;17.54;43.37;100627.94;1787915;77;21438;-75
2021/05/12 06:12:43;;;;;;;1.25;1.10;;;;;;;17.55;43.43;100620.88;1823013;77;20952;-79
2021/05/12 06:15:28;;;;;;;2.08;1.17;;;;;;;17.49;42.54;100624.81;1830337;77;20965;-80
2021/05/12 06:18:14;;;;;;;1.35;0.90;;;;;;;17.36;42.68;100617.94;1816093;78;21081;-72
2021/05/12 06:20:59;;;;;;;4.37;1.22;;;;;;;17.25;42.72;100606.41;1798285;78;20947;-71
2021/05/12 06:23:45;;;;;;;1.62;1.10;;;;;;;17.20;42.88;100610.34;1790531;78;21076;-72
2021/05/12 06:26:31;;;;;;;2.10;1.90;;;;;;;17.41;42.89;100608.74;1818929;77;20964;-72
2021/05/12 06:29:17;;;;;;;1.20;1.10;;;;;;;17.55;42.53;100593.23;1812923;77;20923;-73
2021/05/12 06:32:04;;;;;;;1.90;1.40;;;;;;;17.68;42.01;100600.56;1821805;77;21027;-72
2021/05/12 06:34:49;;;;;;;1.60;1.47;;;;;;;17.93;41.10;100599.52;1820046;77;21482;-68
2021/05/12 06:37:34;;;;;;;1.45;1.40;;;;;;;18.09;41.36;100604.41;1820740;77;21114;-67
2021/05/12 06:40:21;;;;;;;1.47;1.35;;;;;;;18.33;40.25;100614.36;1796234;77;21577;-67
2021/05/12 06:42:48;;;;;;;1.10;1.00;;;;;;;18.27;40.35;100597.22;1792755;78;21525;-68
2021/05/12 06:45:16;;;;;;;1.98;1.40;;;;;;;18.15;40.79;100609.20;1740425;80;21036;-69
2021/05/12 06:47:43;;;;;;;1.30;1.02;;;;;;;18.16;41.30;100597.23;1843937;77;20940;-70
2021/05/12 06:50:11;;;;;;;1.02;1.00;;;;;;;18.40;40.17;100597.55;1810300;78;21166;-71
2021/05/12 06:52:38;;;;;;;2.77;1.47;;;;;;;18.31;40.94;100600.45;1764636;78;20967;-71
2021/05/12 06:55:08;;;;;;;1.32;1.22;;;;;;;18.29;40.61;100612.44;1751663;80;20992;-69
2021/05/12 06:57:34;;;;;;;1.75;1.17;;;;;;;18.10;41.01;100601.66;1829757;77;20937;-67
2021/05/12 07:00:02;;;;;;;4.15;1.30;;;;;;;17.96;41.53;100593.53;1816873;77;20937;-72
2021/05/12 07:02:32;;;;;;;1.10;0.98;;;;;;;17.96;41.89;100613.30;1818708;77;21042;-74
2021/05/12 07:05:01;;;;;;;4.72;1.57;;;;;;;18.18;41.97;100602.38;1818001;77;20972;-72
2021/05/12 07:07:28;;;;;;;1.90;1.72;;;;;;;18.42;41.13;100592.51;1804419;78;21019;-72
2021/05/12 07:09:56;;;;;;;1.17;1.17;;;;;;;18.46;40.65;100589.98;1815102;77;20928;-72
2021/05/12 07:12:23;;;;;;;1.22;1.20;;;;;;;18.49;39.93;100602.93;1794509;77;20868;-71
2021/05/12 07:14:50;;;;;;;1.72;1.10;;;;;;;18.34;39.96;100593.63;1790638;79;20992;-74
2021/05/12 07:17:17;;;;;;;1.72;1.20;;;;;;;18.03;41.18;100599.62;1821190;78;20862;-72
2021/05/12 07:19:46;;;;;;;2.08;1.40;;;;;;;17.74;41.70;100590.03;1803012;78;20913;-72
2021/05/12 07:22:13;;;;;;;1.05;1.05;;;;;;;17.54;42.61;100596.34;1752055;79;20969;-70
2021/05/12 07:24:41;;;;;;;1.30;1.20;;;;;;;17.59;42.39;100595.98;1753786;79;21036;-77
2021/05/12 07:27:08;;;;;;;0.88;0.88;;;;;;;17.60;42.13;100591.05;1821184;77;21163;-75
2021/05/12 07:29:35;;;;;;;1.10;1.10;;;;;;;17.40;42.37;100593.91;1824136;77;21415;-70
2021/05/12 07:32:02;;;;;;;1.25;1.05;;;;;;;17.26;43.09;100596.25;1824479;77;21007;-69
2021/05/12 07:34:28;;;;;;;3.12;1.10;;;;;;;17.13;42.63;100579.72;1804598;78;20983;-69
2021/05/12 07:36:55;;;;;;;1.12;1.12;;;;;;;16.92;42.81;100595.77;1799100;77;21067;-68
2021/05/12 07:39:22;;;;;;;1.70;1.27;;;;;;;16.65;43.50;100573.65;1799894;77;21439;-66
2021/05/12 07:41:51;;;;;;;3.22;1.22;;;;;;;16.48;44.40;100576.14;1823236;77;21580;-72
2021/05/12 07:44:20;;;;;;;3.65;1.35;;;;;;;16.34;44.70;100581.09;1824223;77;20979;-70
2021/05/12 07:46:50;;;;;;;1.77;1.35;;;;;;;16.14;44.46;100576.40;1800872;78;20924;-71
2021/05/12 07:49:18;;;;;;;2.05;1.10;;;;;;;15.93;44.99;100564.79;1811471;77;20945;-73
2021/05/12 07:51:46;;;;;;;1.95;1.07;;;;;;;15.90;44.90;100566.31;1850622;77;22394;-72
2021/05/12 07:54:13;;;;;;;2.30;1.00;;;;;;;15.95;45.03;100562.42;1850981;77;21605;-68
2021/05/12 07:56:40;;;;;;;2.05;1.05;;;;;;;16.18;44.12;100576.55;1810823;77;20987;-74
2021/05/12 07:59:08;;;;;;;1.20;1.10;;;;;;;16.55;43.85;100560.77;1816529;77;20956;-68
2021/05/12 08:01:42;;;;;;;1.40;1.20;;;;;;;16.81;42.58;100562.35;1820681;77;20988;-70
2021/05/12 08:04:04;;;;;;;5.25;1.05;;;;;;;16.83;43.11;100568.34;1810957;78;21039;-70
2021/05/12 08:06:34;;;;;;;1.00;1.00;;;;;;;16.97;42.88;100568.64;1789425;78;21554;-69
2021/05/12 08:09:05;;;;;;;1.50;1.10;;;;;;;17.05;42.21;100569.39;1825215;77;21396;-73
2021/05/12 08:11:32;;;;;;;1.82;1.02;;;;;;;16.98;42.69;100554.54;1820021;77;20928;-72
2021/05/12 08:13:59;;;;;;;3.00;1.30;;;;;;;16.86;42.72;100562.02;1817226;77;21015;-68
2021/05/12 08:16:26;;;;;;;2.80;1.10;;;;;;;16.75;43.24;100558.05;1811830;78;21176;-71
2021/05/12 08:18:53;;;;;;;1.65;1.00;;;;;;;16.72;43.15;100563.53;1817460;77;21016;-71
2021/05/12 08:21:20;;;;;;;1.15;1.00;;;;;;;16.66;43.07;100550.34;1814596;77;20944;-68
2021/05/12 08:23:47;;;;;;;1.05;1.05;;;;;;;16.52;43.22;100547.37;1810553;77;21054;-74
2021/05/12 08:26:16;;;;;;;1.85;1.00;;;;;;;16.36;43.75;100563.06;1819561;77;20877;-69
2021/05/12 08:28:43;;;;;;;1.40;1.22;;;;;;;16.09;44.20;100549.61;1796867;78;21394;-69
2021/05/12 08:31:15;;;;;;;0.80;0.80;;;;;;;15.94;44.33;100554.17;1818257;77;20976;-70
2021/05/12 08:33:42;;;;;;;1.10;1.10;;;;;;;15.82;44.30;100553.71;1793931;77;20881;-77
2021/05/12 08:36:09;;;;;;;1.45;1.00;;;;;;;15.70;44.49;100551.09;1816965;77;21007;-72
2021/05/12 08:38:37;;;;;;;1.15;1.00;;;;;;;15.63;44.69;100557.23;1820042;77;21402;-75
2021/05/12 08:41:04;;;;;;;1.60;1.10;;;;;;;15.56;44.83;100566.02;1820995;77;20976;-73
2021/05/12 08:43:31;;;;;;;0.95;0.95;;;;;;;15.46;45.29;100571.96;1814364;77;20968;-76
2021/05/12 08:45:57;;;;;;;2.30;1.20;;;;;;;15.41;45.51;100568.80;1817641;77;21026;-71
2021/05/12 08:48:25;;;;;;;1.00;1.00;;;;;;;15.35;46.43;100564.34;1820749;77;21047;-76
2021/05/12 08:50:52;;;;;;;1.00;1.00;;;;;;;15.34;46.60;100573.63;1803916;77;21525;-73
2021/05/12 08:53:20;;;;;;;1.52;1.20;;;;;;;15.34;46.77;100557.41;1814353;77;21245;-71
2021/05/12 08:55:47;;;;;;;1.77;1.20;;;;;;;15.37;46.01;100546.34;1794224;77;20960;-73
2021/05/12 08:58:14;;;;;;;1.95;1.60;;;;;;;15.37;46.24;100551.11;1782122;78;20952;-77
2021/05/12 09:00:41;;;;;;;1.17;1.10;;;;;;;15.46;45.88;100548.34;1775127;79;21462;-72
2021/05/12 09:03:09;;;;;;;4.17;1.20;;;;;;;15.57;45.48;100534.05;1776554;79;21004;-69
2021/05/12 09:05:37;;;;;;;2.85;1.00;;;;;;;15.78;45.42;100562.75;1801797;77;21255;-71
2021/05/12 09:08:05;;;;;;;3.10;1.15;;;;;;;15.88;44.59;100536.22;1786519;78;21728;-70
2021/05/12 09:10:31;;;;;;;1.07;1.07;;;;;;;15.93;44.16;100539.84;1809311;78;21616;-69
2021/05/12 09:13:01;;;;;;;2.30;1.15;;;;;;;16.00;44.09;100537.95;1781515;79;21027;-73
2021/05/12 09:15:30;;;;;;;3.27;1.07;;;;;;;16.11;44.34;100530.64;1781592;78;21264;-70
2021/05/12 09:18:01;;;;;;;6.83;1.77;;;;;;;16.26;44.11;100533.49;1784292;79;21375;-73
2021/05/12 09:20:40;;;;;;;3.55;1.10;;;;;;;16.45;43.84;100526.41;1782762;79;20904;-76
2021/05/12 09:23:14;;;;;;;2.30;1.32;;;;;;;16.55;42.54;100534.00;1781167;79;20972;-70
2021/05/12 09:25:43;;;;;;;3.12;1.70;;;;;;;16.48;42.52;100551.17;1784048;79;20981;-69
2021/05/12 09:28:19;;;;;;;1.22;1.10;;;;;;;16.40;42.85;100536.42;1735914;79;21486;-71
2021/05/12 09:30:51;;;;;;;1.40;0.90;;;;;;;16.34;42.96;100529.00;1775035;79;20998;-70
2021/05/12 09:33:32;;;;;;;1.85;1.05;;;;;;;16.26;43.30;100530.86;1781385;79;21008;-74
2021/05/12 09:35:59;;;;;;;1.47;1.37;;;;;;;16.20;42.91;100531.30;1783639;78;20988;-70
2021/05/12 09:38:29;;;;;;;4.05;1.10;;;;;;;16.21;42.45;100523.78;1782925;79;21147;-70
2021/05/12 09:41:13;;;;;;;2.35;1.12;;;;;;;16.23;42.41;100574.91;1780282;79;21012;-70
2021/05/12 09:43:50;;;;;;;0.90;0.90;;;;;;;16.22;42.86;100522.00;1757888;79;21075;-70
2021/05/12 09:46:26;;;;;;;2.00;1.57;;;;;;;16.30;42.80;100516.56;1789926;77;21086;-69
2021/05/12 09:49:04;;;;;;;2.20;1.72;;;;;;;16.45;42.83;100516.38;1779483;79;20988;-70
2021/05/12 09:51:40;;;;;;;1.52;1.42;;;;;;;16.51;41.93;100527.28;1777470;79;21506;-71
2021/05/12 09:54:17;;;;;;;;;;;;;;;16.45;42.40;100528.20;1773859;80;20904;-70
2021/05/12 09:56:57;;;;;;;3.52;1.00;;;;;;;16.43;42.79;100520.91;1799486;79;20427;-68
2021/05/12 09:59:26;;;;;;;1.95;1.30;;;;;;;16.45;42.63;100519.00;1782531;79;21013;-68
2021/05/12 10:02:00;;;;;;;3.22;2.30;;;;;;;16.55;41.81;100518.70;1775630;79;21509;-69
2021/05/12 10:04:42;;;;;;;2.67;1.17;;;;;;;16.60;42.16;100522.67;1741167;80;21000;-70
2021/05/12 10:07:23;;;;;;;9.55;2.17;;;;;;;16.66;41.78;100509.11;1774451;79;21002;-70
2021/05/12 10:09:56;;;;;;;2.15;1.60;;;;;;;16.66;41.91;100513.06;1791701;79;21076;-70
2021/05/12 10:12:26;;;;;;;2.17;1.47;;;;;;;16.64;42.22;100515.44;1795985;79;21004;-71
2021/05/12 10:14:56;;;;;;;1.42;1.37;;;;;;;16.61;42.51;100514.31;1794942;79;21012;-70
2021/05/12 10:17:25;;;;;;;2.60;1.17;;;;;;;16.64;42.66;100499.19;1796929;79;21004;-69
2021/05/12 10:19:55;;;;;;;1.42;1.27;;;;;;;16.66;42.37;100504.33;1796301;79;21008;-68
2021/05/12 10:22:23;;;;;;;1.20;1.20;;;;;;;16.60;42.51;100493.75;1794657;79;21944;-70
2021/05/12 10:24:52;;;;;;;1.82;1.70;;;;;;;16.59;42.71;100484.19;1796706;79;21008;-70
2021/05/12 10:27:28;;;;;;;2.27;1.30;;;;;;;16.60;43.12;100493.75;1767765;79;20992;-69
2021/05/12 10:29:57;;;;;;;1.20;1.10;;;;;;;16.69;43.17;100484.39;1741125;79;20952;-68
2021/05/12 10:32:34;;;;;;;4.80;1.57;;;;;;;16.80;42.55;100478.30;1740769;80;20889;-67
2021/05/12 10:35:09;;;;;;;1.65;1.55;;;;;;;16.86;42.66;100468.64;1766851;79;21754;-69
2021/05/12 10:37:41;;;;;;;1.10;1.10;;;;;;;16.99;42.84;100473.34;1791031;79;20889;-69
2021/05/12 10:40:32;;;;;;;1.75;1.45;;;;;;;17.07;41.62;100467.50;1766350;80;20913;-70
2021/05/12 10:43:08;;;;;;;1.85;1.47;;;;;;;17.03;42.04;100455.05;1766512;80;21618;-69
2021/05/12 10:45:58;;;;;;;1.50;1.30;;;;;;;17.13;42.10;100465.72;1778207;79;20873;-69
2021/05/12 10:48:45;;;;;;;3.90;2.30;;;;;;;17.17;41.86;100452.70;1798229;79;21051;-70
2021/05/12 10:51:33;;;;;;;2.52;1.60;;;;;;;17.13;42.30;100451.25;1743029;80;21589;-71
2021/05/12 10:54:03;;;;;;;1.82;1.40;;;;;;;17.16;42.37;100440.49;1800852;79;21526;-68
2021/05/12 10:56:40;;;;;;;2.70;1.42;;;;;;;17.24;41.84;100431.50;1815880;78;21463;-65
2021/05/12 10:59:12;;;;;;;2.25;1.17;;;;;;;17.22;41.24;100450.52;1787656;77;21006;-71
2021/05/12 11:01:49;;;;;;;1.75;1.10;;;;;;;17.10;41.76;100437.85;1779308;77;21127;-70
2021/05/12 11:04:18;;;;;;;1.45;1.20;;;;;;;17.02;42.10;100440.70;1828555;77;20889;-71
2021/05/12 11:06:53;;;;;;;3.50;1.32;;;;;;;16.93;41.98;100427.29;1761516;80;21013;-68
2021/05/12 11:09:40;;;;;;;1.67;1.32;;;;;;;16.87;42.47;100429.55;1765889;79;21090;-71
2021/05/12 11:12:17;;;;;;;3.55;3.25;;;;;;;16.91;42.68;100415.20;1808198;79;21541;-68
2021/05/12 11:14:58;;;;;;;2.62;2.10;;;;;;;17.02;42.36;100412.60;1764972;79;21030;-67
2021/05/12 11:17:43;;;;;;;1.40;1.30;;;;;;;17.10;42.39;100415.96;1793375;77;21478;-69
2021/05/12 11:20:15;;;;;;;3.10;1.37;;;;;;;17.10;41.89;100414.65;1792141;78;20945;-71
2021/05/12 11:22:45;;;;;;;3.98;2.70;;;;;;;17.05;42.35;100423.37;1746211;80;20992;-70
2021/05/12 11:25:22;;;;;;;1.87;1.30;;;;;;;16.99;42.24;100418.94;1733257;80;21005;-70
2021/05/12 11:33:36;;;;;;;1.98;1.10;;;;;;;16.86;42.45;100402.87;1804936;77;20881;-71
2021/05/12 11:36:15;;;;;;;3.45;1.50;;;;;;;16.79;42.35;100404.33;1799291;79;21059;-68
2021/05/12 11:38:42;;;;;;;3.02;1.47;;;;;;;16.72;41.70;100399.17;1786749;77;20972;-70
2021/05/12 11:41:17;;;;;;;4.08;1.20;;;;;;;16.56;42.12;100393.71;1802597;77;21261;-70
2021/05/12 11:43:55;;;;;;;1.67;1.37;;;;;;;16.46;42.10;100395.83;1807847;78;21004;-70
2021/05/12 11:46:39;;;;;;;4.72;2.25;;;;;;;16.34;42.89;100377.41;1830222;77;20972;-71
2021/05/12 11:49:09;;;;;;;12.95;6.72;;;;;;;16.32;43.16;100385.89;1793871;77;20939;-70
2021/05/12 11:51:44;;;;;;;2.87;2.58;;;;;;;16.27;41.39;100364.36;1797330;79;20900;-71
2021/05/12 11:54:21;;;;;;;2.60;1.90;;;;;;;16.21;42.00;100360.88;1810701;77;21752;-68
2021/05/12 11:56:55;;;;;;;7.75;2.30;;;;;;;16.19;43.06;100368.03;1801330;78;21620;-68
2021/05/12 11:59:32;;;;;;;2.75;1.40;;;;;;;16.22;42.37;100361.23;1807006;78;21558;-67
2021/05/12 12:02:06;;;;;;;;;;;;;;;16.28;42.23;100369.14;1729525;81;21435;-66
2021/05/12 12:04:39;;;;;;;1.62;1.20;;;;;;;16.30;41.43;100343.59;1784355;79;20495;-69
2021/05/12 12:07:06;;;;;;;3.27;1.57;;;;;;;16.30;41.06;100343.59;1772346;79;21233;-67
2021/05/12 12:09:33;;;;;;;1.07;1.05;;;;;;;16.24;41.44;100325.17;1763766;79;20986;-70
2021/05/12 12:12:00;;;;;;;3.62;1.15;;;;;;;16.20;42.13;100321.09;1768302;79;20980;-68
2021/05/12 12:14:33;;;;;;;3.50;1.45;;;;;;;16.24;41.90;100322.55;1777243;79;21005;-72
2021/05/12 12:17:00;;;;;;;1.20;1.10;;;;;;;16.29;41.55;100310.38;1775424;79;21644;-77
2021/05/12 12:19:27;;;;;;;1.65;1.17;;;;;;;16.32;40.85;100320.66;1753819;79;21931;-73
2021/05/12 12:21:54;;;;;;;4.72;1.75;;;;;;;16.28;41.25;100306.91;1767556;80;20953;-69
2021/05/12 12:24:26;;;;;;;3.55;1.15;;;;;;;16.32;41.42;100300.47;1774522;79;21593;-69
2021/05/12 12:26:57;;;;;;;5.03;1.30;;;;;;;16.36;40.96;100298.45;1772133;79;21530;-70
2021/05/12 12:29:31;;;;;;;4.08;1.42;;;;;;;16.44;41.15;100296.53;1804336;79;20983;-69
2021/05/12 12:32:03;;;;;;;2.70;1.25;;;;;;;16.55;40.98;100293.92;1769948;80;21425;-64
2021/05/12 12:34:35;;;;;;;2.15;1.75;;;;;;;16.69;40.80;100294.22;1755347;79;21015;-68
2021/05/12 12:37:17;;;;;;;5.28;1.30;;;;;;;16.84;40.25;100290.38;1772787;79;20982;-68
2021/05/12 12:39:56;;;;;;;2.20;0.95;;;;;;;16.96;40.09;100286.80;1777453;79;21425;-69
2021/05/12 12:42:39;;;;;;;3.17;1.70;;;;;;;17.11;39.62;100278.19;1775161;79;20989;-67
2021/05/12 12:45:20;;;;;;;2.67;1.10;;;;;;;17.20;40.05;100263.79;1762841;80;21594;-78
2021/05/12 12:47:55;;;;;;;2.08;1.60;;;;;;;17.37;39.81;100281.34;1780340;79;21045;-69
2021/05/12 12:50:26;;;;;;;3.33;1.90;;;;;;;17.47;38.99;100267.33;1772967;79;21026;-72
2021/05/12 12:52:52;;;;;;;2.85;1.22;;;;;;;17.50;38.86;100250.45;1775807;80;21614;-71
2021/05/12 12:55:26;;;;;;;2.87;1.20;;;;;;;17.52;38.51;100249.84;1753489;79;20980;-70
2021/05/12 12:58:02;;;;;;;3.52;1.10;;;;;;;17.48;39.21;100241.84;1767006;79;21073;-71
2021/05/12 13:00:34;;;;;;;1.32;1.17;;;;;;;17.49;38.86;100236.45;1801321;78;20996;-72
2021/05/12 13:03:18;;;;;;;5.78;3.35;;;;;;;17.44;39.23;100232.03;1781924;79;21506;-72
2021/05/12 13:05:48;;;;;;;3.95;2.33;;;;;;;17.43;39.80;100222.95;1799032;78;20921;-71
2021/05/12 13:08:38;;;;;;;3.10;1.72;;;;;;;17.36;39.47;100217.34;1766053;80;21252;-70
2021/05/12 13:11:10;;;;;;;4.97;1.12;;;;;;;17.30;39.88;100217.83;1773164;80;21137;-72
2021/05/12 13:13:52;;;;;;;6.95;1.40;;;;;;;17.26;40.32;100226.94;1796553;79;20885;-70
2021/05/12 13:16:35;;;;;;;2.47;1.20;;;;;;;17.23;40.04;100228.02;1821459;78;21003;-75
2021/05/12 13:19:06;;;;;;;3.12;1.67;;;;;;;17.21;39.76;100227.30;1808569;78;21573;-74
2021/05/12 13:21:52;;;;;;;2.75;1.52;;;;;;;17.14;39.71;100216.11;1795503;79;20937;-71
2021/05/12 13:24:28;;;;;;;2.20;1.55;;;;;;;17.09;40.31;100217.79;1824614;78;21197;-70
2021/05/12 13:27:06;;;;;;;3.60;1.80;;;;;;;17.14;40.71;100219.58;1770279;80;20957;-70
2021/05/12 13:29:35;;;;;;;5.03;1.92;;;;;;;17.18;39.96;100214.91;1785943;78;20914;-69
2021/05/12 13:32:03;;;;;;;8.20;1.80;;;;;;;17.20;39.93;100200.63;1825172;78;20933;-75
2021/05/12 13:34:30;;;;;;;4.87;1.90;;;;;;;17.28;39.74;100195.59;1818699;78;21361;-71
2021/05/12 13:36:58;;;;;;;1.90;1.40;;;;;;;17.36;39.87;100186.23;1774565;79;21881;-76
2021/05/12 13:39:27;;;;;;;2.17;1.30;;;;;;;17.48;39.89;100191.34;1723792;80;21509;-68
2021/05/12 13:41:53;;;;;;;8.33;1.60;;;;;;;17.58;39.73;100178.25;1776137;78;20932;-69
2021/05/12 13:44:20;;;;;;;1.60;1.40;;;;;;;17.66;39.63;100183.25;1795957;79;20937;-66
2021/05/12 13:46:47;;;;;;;5.92;1.72;;;;;;;17.70;39.21;100169.34;1792811;79;21403;-68
2021/05/12 13:49:14;;;;;;;5.60;1.27;;;;;;;17.72;39.39;100167.90;1766766;80;22046;-72
2021/05/12 13:51:50;;;;;;;5.33;1.20;;;;;;;17.76;39.62;100165.36;1790467;78;21579;-70
2021/05/12 13:54:19;;;;;;;5.30;1.50;;;;;;;17.79;38.97;100168.58;1788828;79;20889;-73
2021/05/12 13:57:00;;;;;;;3.98;1.50;;;;;;;17.79;39.31;100165.11;1796979;79;20953;-71
2021/05/12 13:59:43;;;;;;;2.42;1.75;;;;;;;17.75;39.04;100163.21;1796368;78;20964;-73
2021/05/12 14:04:41;;;;;;;4.10;1.90;;;;;;;17.48;39.64;100175.54;1782753;78;21045;-74
2021/05/12 14:07:08;;;;;;;2.30;1.55;;;;;;;17.29;41.15;100182.78;1795251;79;21000;-70
2021/05/12 14:09:39;;;;;;;3.50;1.60;;;;;;;17.08;43.13;100180.59;1790757;79;21545;-72
2021/05/12 14:12:08;;;;;;;2.58;1.70;;;;;;;16.82;44.19;100191.03;1773979;80;21058;-74
2021/05/12 14:17:12;;;;;;;4.72;1.55;;;;;;;16.26;46.35;100180.54;1710636;79;20971;-73
2021/05/12 14:19:37;;;;;;;6.17;2.00;;;;;;;15.93;47.41;100186.13;1764676;80;20972;-69
2021/05/12 14:22:05;;;;;;;2.80;2.20;;;;;;;15.63;48.02;100171.34;1765552;79;20913;-70
2021/05/12 14:24:32;;;;;;;1.67;1.57;;;;;;;15.39;49.15;100167.90;1783229;79;21706;-66
2021/05/12 14:27:00;;;;;;;3.33;2.25;;;;;;;15.19;50.02;100172.00;1783386;79;20964;-71
2021/05/12 14:29:43;;;;;;;4.12;2.27;;;;;;;15.06;51.04;100167.28;1725250;79;20980;-72
2021/05/12 14:32:12;;;;;;;2.70;2.50;;;;;;;14.93;52.03;100168.16;1784159;79;20981;-72
2021/05/12 14:34:41;;;;;;;4.42;2.80;;;;;;;14.81;53.04;100165.09;1784109;79;20976;-71
2021/05/12 14:37:08;;;;;;;6.35;3.20;;;;;;;14.72;54.62;100170.18;1784103;79;20928;-70
2021/05/12 14:39:36;;;;;;;5.25;2.72;;;;;;;14.64;55.94;100166.31;1778704;79;21302;-70
2021/05/12 14:42:06;;;;;;;7.55;2.70;;;;;;;14.57;57.22;100163.76;1802546;79;20988;-70
2021/05/12 14:44:34;;;;;;;7.28;2.08;;;;;;;14.53;57.72;100159.67;1793093;78;21009;-69
